createdAt,value
2023-01-24T00:01:20.382Z,4.60
2023-01-24T00:03:49.014Z,4.60
2023-01-24T00:06:17.658Z,4.60
2023-01-24T00:08:46.051Z,4.60
2023-01-24T00:11:14.960Z,4.60
2023-01-24T00:13:43.387Z,4.60
2023-01-24T00:16:16.624Z,4.60
2023-01-24T00:18:45.497Z,4.70
2023-01-24T00:21:15.415Z,4.70
2023-01-24T00:23:45.904Z,4.60
2023-01-24T00:26:14.716Z,4.60
2023-01-24T00:28:45.310Z,4.60
2023-01-24T00:31:15.409Z,4.60
2023-01-24T00:33:44.137Z,4.60
2023-01-24T00:36:12.496Z,4.60
2023-01-24T00:38:41.364Z,4.60
2023-01-24T00:41:09.904Z,4.60
2023-01-24T00:43:38.431Z,4.60
2023-01-24T00:46:08.420Z,4.60
2023-01-24T00:48:38.322Z,4.60
2023-01-24T00:51:07.133Z,4.60
2023-01-24T00:53:35.475Z,4.60
2023-01-24T00:56:03.655Z,4.60
2023-01-24T00:58:33.453Z,4.60
2023-01-24T01:01:04.307Z,4.60
2023-01-24T01:03:33.012Z,4.50
2023-01-24T01:06:05.292Z,4.50
2023-01-24T01:08:34.436Z,4.50
2023-01-24T01:11:02.686Z,4.50
2023-01-24T01:13:31.125Z,4.50
2023-01-24T01:16:04.194Z,4.50
2023-01-24T01:18:32.862Z,4.50
2023-01-24T01:21:02.405Z,4.50
2023-01-24T01:23:31.619Z,4.50
2023-01-24T01:26:04.442Z,4.50
2023-01-24T01:28:33.139Z,4.50
2023-01-24T01:31:01.383Z,4.60
2023-01-24T01:33:29.867Z,4.50
2023-01-24T01:35:57.999Z,4.60
2023-01-24T01:38:29.034Z,4.50
2023-01-24T01:40:57.799Z,4.50
2023-01-24T01:43:28.771Z,4.50
2023-01-24T01:46:00.508Z,4.50
2023-01-24T01:48:37.179Z,4.50
2023-01-24T01:51:13.658Z,4.50
2023-01-24T01:53:49.402Z,4.50
2023-01-24T01:56:27.138Z,4.60
2023-01-24T01:58:57.584Z,4.50
2023-01-24T02:01:25.991Z,4.50
2023-01-24T02:04:02.372Z,4.50
2023-01-24T02:06:45.472Z,4.50
2023-01-24T02:09:18.871Z,4.50
2023-01-24T02:11:47.765Z,4.50
2023-01-24T02:14:37.493Z,4.50
2023-01-24T02:17:06.174Z,4.50
2023-01-24T02:19:52.461Z,4.50
2023-01-24T02:22:27.666Z,4.50
2023-01-24T02:25:08.288Z,4.50
2023-01-24T02:27:38.090Z,4.40
2023-01-24T02:30:07.322Z,4.50
2023-01-24T02:32:35.797Z,4.50
2023-01-24T02:35:05.426Z,4.40
2023-01-24T02:37:37.469Z,4.50
2023-01-24T02:40:09.428Z,4.50
2023-01-24T02:42:40.940Z,4.40
2023-01-24T02:45:15.592Z,4.40
2023-01-24T02:47:48.637Z,4.40
2023-01-24T02:50:17.527Z,4.40
2023-01-24T02:53:03.183Z,4.40
2023-01-24T02:55:31.509Z,4.40
2023-01-24T02:58:06.693Z,4.40
2023-01-24T03:00:37.944Z,4.50
2023-01-24T03:03:06.683Z,4.50
2023-01-24T03:05:57.403Z,4.50
2023-01-24T03:08:33.981Z,4.50
2023-01-24T03:11:04.211Z,4.50
2023-01-24T03:13:52.703Z,4.50
2023-01-24T03:16:38.625Z,4.50
2023-01-24T03:19:25.532Z,4.50
2023-01-24T03:22:11.410Z,4.50
2023-01-24T03:24:57.763Z,4.50
2023-01-24T03:27:43.123Z,4.50
2023-01-24T03:30:33.188Z,4.50
2023-01-24T03:33:20.018Z,4.50
2023-01-24T03:35:54.807Z,4.50
2023-01-24T03:38:43.117Z,4.50
2023-01-24T03:41:12.547Z,4.50
2023-01-24T03:43:42.195Z,4.50
2023-01-24T03:46:13.095Z,4.50
2023-01-24T03:48:46.854Z,4.50
2023-01-24T03:51:33.136Z,4.50
2023-01-24T03:54:01.613Z,4.50
2023-01-24T03:56:44.772Z,4.50
2023-01-24T03:59:12.988Z,4.40
2023-01-24T04:01:43.679Z,4.50
2023-01-24T04:04:19.568Z,4.40
2023-01-24T04:06:48.043Z,4.40
2023-01-24T04:09:17.442Z,4.40
2023-01-24T04:11:46.245Z,4.40
2023-01-24T04:14:19.857Z,4.40
2023-01-24T04:16:59.102Z,4.40
2023-01-24T04:19:32.857Z,4.40
2023-01-24T04:22:01.432Z,4.40
2023-01-24T04:24:32.376Z,4.40
2023-01-24T04:27:00.552Z,4.40
2023-01-24T04:29:35.843Z,4.40
2023-01-24T04:32:07.911Z,4.40
2023-01-24T04:34:50.277Z,4.40
2023-01-24T04:37:26.211Z,4.40
2023-01-24T04:39:54.616Z,4.40
2023-01-24T04:42:22.882Z,4.40
2023-01-24T04:44:51.653Z,4.40
2023-01-24T04:47:21.426Z,4.40
2023-01-24T04:49:49.888Z,4.40
2023-01-24T04:52:20.565Z,4.40
2023-01-24T04:54:59.675Z,4.40
2023-01-24T04:57:27.895Z,4.40
2023-01-24T04:59:56.297Z,4.40
2023-01-24T05:02:26.745Z,4.40
2023-01-24T05:04:54.910Z,4.30
2023-01-24T05:07:23.894Z,4.30
2023-01-24T05:09:59.590Z,4.40
2023-01-24T05:12:28.259Z,4.30
2023-01-24T05:14:59.309Z,4.30
2023-01-24T05:17:29.082Z,4.30
2023-01-24T05:19:58.695Z,4.30
2023-01-24T05:22:27.451Z,4.30
2023-01-24T05:24:55.550Z,4.30
2023-01-24T05:27:24.034Z,4.20
2023-01-24T05:29:58.442Z,4.30
2023-01-24T05:32:28.598Z,4.30
2023-01-24T05:34:56.830Z,4.20
2023-01-24T05:37:26.908Z,4.20
2023-01-24T05:39:55.004Z,4.20
2023-01-24T05:42:23.437Z,4.20
2023-01-24T05:44:53.325Z,4.20
2023-01-24T05:47:21.832Z,4.20
2023-01-24T05:49:53.604Z,4.20
2023-01-24T05:52:23.185Z,4.20
2023-01-24T05:54:53.861Z,4.20
2023-01-24T05:57:31.263Z,4.20
2023-01-24T06:00:15.710Z,4.10
2023-01-24T06:02:52.789Z,4.20
2023-01-24T06:05:22.512Z,4.10
2023-01-24T06:07:50.972Z,4.10
2023-01-24T06:10:19.194Z,4.10
2023-01-24T06:12:55.985Z,4.10
2023-01-24T06:15:24.529Z,4.10
2023-01-24T06:17:52.990Z,4.00
2023-01-24T06:20:23.362Z,4.00
2023-01-24T06:22:55.307Z,4.10
2023-01-24T06:25:26.794Z,4.10
2023-01-24T06:27:55.424Z,4.00
2023-01-24T06:30:24.127Z,4.10
2023-01-24T06:33:16.280Z,3.90
2023-01-24T06:35:55.279Z,3.90
2023-01-24T06:38:25.612Z,4.00
2023-01-24T06:40:58.052Z,4.00
2023-01-24T06:43:26.811Z,4.00
2023-01-24T06:45:55.046Z,4.00
2023-01-24T06:48:23.246Z,4.00
2023-01-24T06:50:53.160Z,4.00
2023-01-24T06:53:21.318Z,4.00
2023-01-24T06:55:49.728Z,4.00
2023-01-24T06:58:17.852Z,4.00
2023-01-24T07:00:46.224Z,4.00
2023-01-24T07:03:14.398Z,4.00
2023-01-24T07:05:42.527Z,4.10
2023-01-24T07:08:13.362Z,4.10
2023-01-24T07:10:42.299Z,4.10
2023-01-24T07:13:10.593Z,4.10
2023-01-24T07:15:38.799Z,4.00
2023-01-24T07:18:08.340Z,4.00
2023-01-24T07:20:36.952Z,4.00
2023-01-24T07:23:05.778Z,4.10
2023-01-24T07:25:38.107Z,4.00
2023-01-24T07:28:07.344Z,4.00
2023-01-24T07:30:35.411Z,4.00
2023-01-24T07:33:03.899Z,4.00
2023-01-24T07:35:31.941Z,4.10
2023-01-24T07:38:01.262Z,4.00
2023-01-24T07:40:29.326Z,4.10
2023-01-24T07:43:01.225Z,4.10
2023-01-24T07:45:29.398Z,4.10
2023-01-24T07:47:58.764Z,4.10
2023-01-24T07:50:27.706Z,4.10
2023-01-24T07:52:56.536Z,4.10
2023-01-24T07:55:25.498Z,4.10
2023-01-24T07:57:53.914Z,4.10
2023-01-24T08:00:23.997Z,4.10
2023-01-24T08:02:52.433Z,4.10
2023-01-24T08:05:20.660Z,4.20
2023-01-24T08:07:48.791Z,4.20
2023-01-24T08:10:17.191Z,4.20
2023-01-24T08:12:45.222Z,4.20
2023-01-24T08:15:13.504Z,4.20
2023-01-24T08:17:42.999Z,4.20
2023-01-24T08:20:12.751Z,4.20
2023-01-24T08:22:56.140Z,4.10
2023-01-24T08:25:26.142Z,4.10
2023-01-24T08:27:54.699Z,4.00
2023-01-24T08:30:23.365Z,4.00
2023-01-24T08:33:00.862Z,4.10
2023-01-24T08:35:29.316Z,4.10
2023-01-24T08:37:57.470Z,4.10
2023-01-24T08:40:26.166Z,4.10
2023-01-24T08:42:54.567Z,4.10
2023-01-24T08:45:23.266Z,4.10
2023-01-24T08:47:54.941Z,4.10
2023-01-24T08:50:24.014Z,4.10
2023-01-24T08:52:56.627Z,4.10
2023-01-24T08:55:25.332Z,4.10
2023-01-24T08:57:53.439Z,4.10
2023-01-24T09:00:22.310Z,4.10
2023-01-24T09:02:53.941Z,3.90
2023-01-24T09:05:23.428Z,3.90
2023-01-24T09:07:51.775Z,4.00
2023-01-24T09:10:20.219Z,4.00
2023-01-24T09:12:48.369Z,4.00
2023-01-24T09:15:16.621Z,4.00
2023-01-24T09:17:45.307Z,4.00
2023-01-24T09:20:15.556Z,4.10
2023-01-24T09:22:43.695Z,4.10
2023-01-24T09:25:11.999Z,4.10
2023-01-24T09:27:42.965Z,4.20
2023-01-24T09:30:12.845Z,4.20
2023-01-24T09:32:41.015Z,4.20
2023-01-24T09:35:09.988Z,4.20
2023-01-24T09:37:41.105Z,4.30
2023-01-24T09:40:21.850Z,4.20
2023-01-24T09:42:59.905Z,4.30
2023-01-24T09:45:33.371Z,4.30
2023-01-24T09:48:04.819Z,4.30
2023-01-24T09:50:40.892Z,4.30
2023-01-24T09:53:18.135Z,4.30
2023-01-24T09:55:47.030Z,4.30
2023-01-24T09:58:30.029Z,4.40
2023-01-24T10:01:00.795Z,4.40
2023-01-24T10:03:29.850Z,4.40
2023-01-24T10:06:02.300Z,4.50
2023-01-24T10:08:39.615Z,4.50
2023-01-24T10:11:25.782Z,4.60
2023-01-24T10:14:21.455Z,4.60
2023-01-24T10:17:19.619Z,4.60
2023-01-24T10:20:07.967Z,4.70
2023-01-24T10:23:02.291Z,4.70
2023-01-24T10:25:40.067Z,4.60
2023-01-24T10:28:19.409Z,4.60
2023-01-24T10:30:54.046Z,4.60
2023-01-24T10:33:22.408Z,4.60
2023-01-24T10:35:57.967Z,4.60
2023-01-24T10:38:27.119Z,4.60
2023-01-24T10:40:59.740Z,4.60
2023-01-24T10:43:32.680Z,4.70
2023-01-24T10:46:14.413Z,4.70
2023-01-24T10:48:46.588Z,4.70
2023-01-24T10:51:17.691Z,4.60
2023-01-24T10:53:46.601Z,4.60
2023-01-24T10:56:18.262Z,4.50
2023-01-24T10:58:57.588Z,4.40
2023-01-24T11:01:35.092Z,4.40
2023-01-24T11:04:15.559Z,4.20
2023-01-24T11:06:47.664Z,4.10
2023-01-24T11:09:18.068Z,4.00
2023-01-24T11:11:50.805Z,4.10
2023-01-24T11:14:22.217Z,4.00
2023-01-24T11:16:53.062Z,3.90
2023-01-24T11:19:28.268Z,3.90
2023-01-24T11:21:58.156Z,4.00
2023-01-24T11:24:26.802Z,4.10
2023-01-24T11:27:05.561Z,4.00
2023-01-24T11:29:34.848Z,4.00
2023-01-24T11:32:20.340Z,4.00
2023-01-24T11:34:57.015Z,4.00
2023-01-24T11:37:58.410Z,4.20
2023-01-24T11:40:35.307Z,4.00
2023-01-24T11:43:24.456Z,4.10
2023-01-24T11:46:15.215Z,4.00
2023-01-24T11:48:54.270Z,4.00
2023-01-24T11:51:34.872Z,4.10
2023-01-24T11:54:23.605Z,4.10
2023-01-24T11:56:59.129Z,4.10
2023-01-24T11:59:42.257Z,4.10
2023-01-24T12:02:29.620Z,3.90
2023-01-24T12:05:13.838Z,4.00
2023-01-24T12:07:53.553Z,3.80
2023-01-24T12:10:30.197Z,3.70
2023-01-24T12:13:07.601Z,3.70
2023-01-24T12:15:47.350Z,3.60
2023-01-24T12:18:28.449Z,3.60
2023-01-24T12:21:00.923Z,3.70
2023-01-24T12:23:43.294Z,3.80
2023-01-24T12:26:19.033Z,3.80
2023-01-24T12:28:54.026Z,3.70
2023-01-24T12:31:30.399Z,3.80
2023-01-24T12:34:03.513Z,3.90
2023-01-24T12:36:37.509Z,3.80
2023-01-24T12:39:16.008Z,3.80
2023-01-24T12:41:48.299Z,3.70
2023-01-24T12:44:30.292Z,3.80
2023-01-24T12:47:22.406Z,3.80
2023-01-24T12:50:10.695Z,3.80
2023-01-24T12:52:43.327Z,3.70
2023-01-24T12:55:16.498Z,3.80
2023-01-24T12:57:47.975Z,3.70
2023-01-24T13:00:18.735Z,3.80
2023-01-24T13:03:14.980Z,3.80
2023-01-24T13:05:50.687Z,3.70
2023-01-24T13:08:29.677Z,3.80
2023-01-24T13:11:08.364Z,3.90
2023-01-24T13:13:43.844Z,3.90
2023-01-24T13:16:56.944Z,3.90
2023-01-24T13:19:40.427Z,4.00
2023-01-24T13:22:28.638Z,4.10
2023-01-24T13:25:11.011Z,4.20
2023-01-24T13:27:46.035Z,4.20
2023-01-24T13:30:26.264Z,4.20
2023-01-24T13:32:55.670Z,4.10
2023-01-24T13:35:27.348Z,3.90
2023-01-24T13:38:04.771Z,3.70
2023-01-24T13:40:36.118Z,3.60
2023-01-24T13:43:05.575Z,3.60
2023-01-24T13:45:57.843Z,3.60
2023-01-24T13:48:56.328Z,3.70
2023-01-24T13:51:50.246Z,3.80
2023-01-24T13:54:37.521Z,3.90
2023-01-24T13:57:25.362Z,3.90
2023-01-24T14:00:09.770Z,4.00
2023-01-24T14:02:44.389Z,3.90
2023-01-24T14:05:49.447Z,3.70
2023-01-24T14:08:36.420Z,3.60
2023-01-24T14:11:44.970Z,3.60
2023-01-24T14:14:34.161Z,3.50
2023-01-24T14:17:34.726Z,3.50
2023-01-24T14:20:03.476Z,3.50
2023-01-24T14:22:46.400Z,3.60
2023-01-24T14:25:42.193Z,3.60
2023-01-24T14:28:22.858Z,3.60
2023-01-24T14:30:56.368Z,3.70
2023-01-24T14:33:30.886Z,3.70
2023-01-24T14:36:25.293Z,3.70
2023-01-24T14:39:19.663Z,3.70
2023-01-24T14:41:51.979Z,3.80
2023-01-24T14:44:23.641Z,3.80
2023-01-24T14:46:57.597Z,3.70
2023-01-24T14:49:32.308Z,3.70
2023-01-24T14:52:15.907Z,3.70
2023-01-24T14:54:46.945Z,3.70
2023-01-24T14:57:25.036Z,3.70
2023-01-24T15:00:16.899Z,3.70
2023-01-24T15:02:53.962Z,3.70
2023-01-24T15:05:27.827Z,3.70
2023-01-24T15:07:56.626Z,3.70
2023-01-24T15:10:26.626Z,3.70
2023-01-24T15:12:58.617Z,3.70
2023-01-24T15:15:27.605Z,3.70
2023-01-24T15:18:01.891Z,3.60
2023-01-24T15:20:31.413Z,3.60
2023-01-24T15:23:03.761Z,3.60
2023-01-24T15:25:34.150Z,3.60
2023-01-24T15:28:12.911Z,3.50
2023-01-24T15:30:53.247Z,3.60
2023-01-24T15:33:21.506Z,3.50
2023-01-24T15:35:50.621Z,3.50
2023-01-24T15:38:22.030Z,3.30
2023-01-24T15:40:56.213Z,3.10
2023-01-24T15:43:48.457Z,3.10
2023-01-24T15:46:41.335Z,3.10
2023-01-24T15:49:36.479Z,3.10
2023-01-24T15:52:23.645Z,3.10
2023-01-24T15:54:58.373Z,3.10
2023-01-24T15:57:29.092Z,3.10
2023-01-24T16:00:02.273Z,3.10
2023-01-24T16:02:37.917Z,3.10
2023-01-24T16:05:13.932Z,3.00
2023-01-24T16:07:42.069Z,2.90
2023-01-24T16:10:14.035Z,2.80
2023-01-24T16:12:43.100Z,2.80
2023-01-24T16:15:18.161Z,2.80
2023-01-24T16:17:46.607Z,2.70
2023-01-24T16:20:20.623Z,2.70
2023-01-24T16:22:49.151Z,2.70
2023-01-24T16:25:20.041Z,2.70
2023-01-24T16:27:48.816Z,2.70
2023-01-24T16:30:20.606Z,2.70
2023-01-24T16:32:49.284Z,2.70
2023-01-24T16:35:18.028Z,2.70
2023-01-24T16:37:46.543Z,2.80
2023-01-24T16:40:17.241Z,2.80
2023-01-24T16:42:47.137Z,2.70
2023-01-24T16:45:17.144Z,2.70
2023-01-24T16:47:47.220Z,2.70
2023-01-24T16:50:17.187Z,2.70
2023-01-24T16:52:45.627Z,2.70
2023-01-24T16:55:14.073Z,2.60
2023-01-24T16:57:42.296Z,2.60
2023-01-24T17:00:14.198Z,2.60
2023-01-24T17:02:43.620Z,2.60
2023-01-24T17:05:13.962Z,2.50
2023-01-24T17:07:42.153Z,2.50
2023-01-24T17:10:12.956Z,2.40
2023-01-24T17:12:41.054Z,2.30
2023-01-24T17:15:10.051Z,2.30
2023-01-24T17:17:38.925Z,2.30
2023-01-24T17:20:08.440Z,2.40
2023-01-24T17:22:38.087Z,2.30
2023-01-24T17:25:07.090Z,2.30
2023-01-24T17:27:35.714Z,2.30
2023-01-24T17:30:04.601Z,2.30
2023-01-24T17:32:36.480Z,2.30
2023-01-24T17:35:04.728Z,2.30
2023-01-24T17:37:32.910Z,2.40
2023-01-24T17:40:02.931Z,2.40
2023-01-24T17:42:31.432Z,2.30
2023-01-24T17:44:59.848Z,2.30
2023-01-24T17:47:29.366Z,2.30
2023-01-24T17:49:57.805Z,2.20
2023-01-24T17:52:25.956Z,2.20
2023-01-24T17:54:54.216Z,2.20
2023-01-24T17:57:23.698Z,2.10
2023-01-24T17:59:52.020Z,2.10
2023-01-24T18:02:20.266Z,2.20
2023-01-24T18:04:48.590Z,2.10
2023-01-24T18:07:16.740Z,2.20
2023-01-24T18:09:44.913Z,2.20
2023-01-24T18:12:13.047Z,2.20
2023-01-24T18:14:43.848Z,2.20
2023-01-24T18:17:12.233Z,2.20
2023-01-24T18:19:40.369Z,2.30
2023-01-24T18:22:08.564Z,2.30
2023-01-24T18:24:36.651Z,2.30
2023-01-24T18:27:05.177Z,2.30
2023-01-24T18:29:33.315Z,2.20
2023-01-24T18:32:03.151Z,2.20
2023-01-24T18:34:31.391Z,2.20
2023-01-24T18:36:59.860Z,2.20
2023-01-24T18:39:32.194Z,2.20
2023-01-24T18:42:04.849Z,2.20
2023-01-24T18:44:33.100Z,2.20
2023-01-24T18:47:02.567Z,2.10
2023-01-24T18:49:31.300Z,2.10
2023-01-24T18:51:59.476Z,2.10
2023-01-24T18:54:27.851Z,2.20
2023-01-24T18:56:56.022Z,2.20
2023-01-24T18:59:24.476Z,2.10
2023-01-24T19:01:52.629Z,2.10
2023-01-24T19:04:22.478Z,2.10
2023-01-24T19:06:50.884Z,2.10
2023-01-24T19:09:19.886Z,2.10
2023-01-24T19:11:48.080Z,2.10
2023-01-24T19:14:18.472Z,2.10
2023-01-24T19:16:46.928Z,2.10
2023-01-24T19:19:16.390Z,2.10
2023-01-24T19:21:47.766Z,2.00
2023-01-24T19:24:16.114Z,2.00
2023-01-24T19:26:44.534Z,1.90
2023-01-24T19:29:12.796Z,1.90
2023-01-24T19:31:41.774Z,1.90
2023-01-24T19:34:11.037Z,2.00
2023-01-24T19:36:41.713Z,2.00
2023-01-24T19:39:14.369Z,1.90
2023-01-24T19:41:42.679Z,1.90
2023-01-24T19:44:21.026Z,1.90
2023-01-24T19:46:51.164Z,2.00
2023-01-24T19:49:19.896Z,2.00
2023-01-24T19:51:48.348Z,2.00
2023-01-24T19:54:18.342Z,1.90
2023-01-24T19:56:46.568Z,1.90
2023-01-24T19:59:15.368Z,1.90
2023-01-24T20:01:43.606Z,1.80
2023-01-24T20:04:23.688Z,1.80
2023-01-24T20:06:55.130Z,1.70
2023-01-24T20:09:25.923Z,1.80
2023-01-24T20:11:54.675Z,1.80
2023-01-24T20:14:24.192Z,1.80
2023-01-24T20:16:52.493Z,1.80
2023-01-24T20:19:28.509Z,1.80
2023-01-24T20:21:57.978Z,1.80
2023-01-24T20:24:28.001Z,1.80
2023-01-24T20:26:56.530Z,1.80
2023-01-24T20:29:26.028Z,1.80
2023-01-24T20:31:54.851Z,1.90
2023-01-24T20:34:23.954Z,1.90
2023-01-24T20:36:52.559Z,1.80
2023-01-24T20:39:21.585Z,1.70
2023-01-24T20:41:51.186Z,1.70
2023-01-24T20:44:26.384Z,1.60
2023-01-24T20:46:55.420Z,1.60
2023-01-24T20:49:23.821Z,1.60
2023-01-24T20:51:52.072Z,1.50
2023-01-24T20:54:21.849Z,1.50
2023-01-24T20:56:56.310Z,1.50
2023-01-24T20:59:24.743Z,1.50
2023-01-24T21:01:53.083Z,1.50
2023-01-24T21:04:21.251Z,1.50
2023-01-24T21:06:49.832Z,1.60
2023-01-24T21:09:18.115Z,1.60
2023-01-24T21:11:47.594Z,1.60
2023-01-24T21:14:17.632Z,1.60
2023-01-24T21:16:45.759Z,1.60
2023-01-24T21:19:18.567Z,1.70
2023-01-24T21:21:48.362Z,1.60
2023-01-24T21:24:34.354Z,1.50
2023-01-24T21:27:03.495Z,1.50
2023-01-24T21:29:33.105Z,1.50
2023-01-24T21:32:02.072Z,1.50
2023-01-24T21:34:30.465Z,1.50
2023-01-24T21:36:58.958Z,1.50
2023-01-24T21:39:27.310Z,1.50
2023-01-24T21:41:55.239Z,1.50
2023-01-24T21:44:24.115Z,1.50
2023-01-24T21:46:54.335Z,1.50
2023-01-24T21:49:22.579Z,1.50
2023-01-24T21:51:52.535Z,1.50
2023-01-24T21:54:22.381Z,1.50
2023-01-24T21:57:23.910Z,1.50
2023-01-24T21:59:58.242Z,1.50
2023-01-24T22:02:29.929Z,1.50
2023-01-24T22:04:59.348Z,1.50
2023-01-24T22:07:29.347Z,1.50
2023-01-24T22:09:59.634Z,1.50
2023-01-24T22:12:28.011Z,1.50
2023-01-24T22:14:56.497Z,1.50
2023-01-24T22:17:27.415Z,1.50
2023-01-24T22:19:58.052Z,1.60
2023-01-24T22:23:05.277Z,1.60
2023-01-24T22:25:44.719Z,1.50
2023-01-24T22:28:18.722Z,1.60
2023-01-24T22:30:47.818Z,1.50
2023-01-24T22:33:18.134Z,1.50
2023-01-24T22:35:48.528Z,1.60
2023-01-24T22:38:16.816Z,1.60
2023-01-24T22:40:44.993Z,1.50
2023-01-24T22:43:13.576Z,1.50
2023-01-24T22:45:41.730Z,1.50
2023-01-24T22:48:14.634Z,1.50
2023-01-24T22:50:44.949Z,1.50
2023-01-24T22:53:13.672Z,1.50
2023-01-24T22:55:42.387Z,1.60
2023-01-24T22:58:10.761Z,1.60
2023-01-24T23:00:39.000Z,1.60
2023-01-24T23:03:07.169Z,1.70
2023-01-24T23:05:35.506Z,1.60
2023-01-24T23:08:05.246Z,1.60
2023-01-24T23:10:33.531Z,1.60
2023-01-24T23:13:18.926Z,1.60
2023-01-24T23:16:04.507Z,1.60
2023-01-24T23:18:53.953Z,1.60
2023-01-24T23:21:35.868Z,1.60
2023-01-24T23:24:05.663Z,1.60
2023-01-24T23:26:34.067Z,1.70
2023-01-24T23:29:27.089Z,1.70
2023-01-24T23:31:55.671Z,1.70
2023-01-24T23:34:41.508Z,1.80
2023-01-24T23:37:10.186Z,1.80
2023-01-24T23:39:39.706Z,1.80
2023-01-24T23:42:07.885Z,1.80
2023-01-24T23:44:36.075Z,1.80
2023-01-24T23:47:04.173Z,1.80
2023-01-24T23:49:32.249Z,1.70
2023-01-24T23:52:00.495Z,1.80
2023-01-24T23:54:28.796Z,1.80
2023-01-24T23:56:58.445Z,1.80
2023-01-24T23:59:27.209Z,1.70
